Time,TemperatureF,DewpointF,PressureIn,WindDirection,WindDirectionDegrees,WindSpeedMPH,WindSpeedGustMPH,Humidity,HourlyPrecipIn,Conditions,Clouds,dailyrainin,SoftwareType,DateUTC
2013-03-04 08:47:00,49.1,32.2,30.03,WNW,292,7.0,10.0,52,0.00,,---,0.00,VWS V12.08,2013-03-04 13:47:00,
2013-03-04 08:52:00,45.0,32.0,30.22,North,355,6.0,23.0,60,0.00,,---,0.00,VWS V12.08,2013-03-04 13:52:00,
2013-03-04 08:57:00,45.8,31.9,30.21,North,5,6.0,23.0,58,0.00,,---,0.00,VWS V12.08,2013-03-04 13:57:00,
2013-03-04 09:02:00,46.3,31.5,30.22,North,360,5.0,23.0,56,0.00,,---,0.00,VWS V12.08,2013-03-04 14:02:00,
2013-03-04 09:07:00,46.9,31.1,30.22,North,355,7.0,23.0,54,0.00,,---,0.00,VWS V12.08,2013-03-04 14:07:00,
2013-03-04 09:12:00,47.4,31.6,30.22,North,355,4.0,23.0,54,0.00,,---,0.00,VWS V12.08,2013-03-04 14:12:00,
2013-03-04 09:17:00,47.8,30.6,30.22,North,9,5.0,23.0,51,0.00,,---,0.00,VWS V12.08,2013-03-04 14:17:00,
2013-03-04 09:22:00,47.9,30.2,30.22,NNE,19,3.0,23.0,50,0.00,,---,0.00,VWS V12.08,2013-03-04 14:22:00,
2013-03-04 09:27:00,48.2,30.5,30.21,North,350,4.0,23.0,50,0.00,,---,0.00,VWS V12.08,2013-03-04 14:27:00,
2013-03-04 09:32:00,48.6,29.8,30.22,North,5,8.0,23.0,48,0.00,,---,0.00,VWS V12.08,2013-03-04 14:32:00,
2013-03-04 09:37:00,48.8,29.0,30.22,NNE,12,5.0,23.0,46,0.00,,---,0.00,VWS V12.08,2013-03-04 14:37:00,
2013-03-04 09:42:00,48.8,28.4,30.22,NW,321,7.0,23.0,45,0.00,,---,0.00,VWS V12.08,2013-03-04 14:42:00,
2013-03-04 09:47:00,48.9,28.0,30.22,NNW,340,7.0,23.0,44,0.00,,---,0.00,VWS V12.08,2013-03-04 14:47:00,
2013-03-04 09:52:00,49.2,28.8,30.21,North,355,10.0,23.0,45,0.00,,---,0.00,VWS V12.08,2013-03-04 14:52:00,
2013-03-04 09:57:00,49.6,28.6,30.22,NNW,346,7.0,23.0,44,0.00,,---,0.00,VWS V12.08,2013-03-04 14:57:00,
2013-03-04 10:02:00,49.8,28.2,30.22,NNW,342,11.0,23.0,43,0.00,,---,0.00,VWS V12.08,2013-03-04 15:02:00,
2013-03-04 10:07:00,50.2,28.0,30.21,North,5,6.0,23.0,42,0.00,,---,0.00,VWS V12.08,2013-03-04 15:07:00,
2013-03-04 10:12:00,50.9,27.5,30.21,NW,322,8.0,23.0,40,0.00,,---,0.00,VWS V12.08,2013-03-04 15:12:00,
2013-03-04 10:17:00,51.2,28.3,30.20,NW,319,9.0,23.0,41,0.00,,---,0.00,VWS V12.08,2013-03-04 15:17:00,
2013-03-04 10:22:00,51.2,28.3,30.20,North,351,10.0,23.0,41,0.00,,---,0.00,VWS V12.08,2013-03-04 15:22:00,
2013-03-04 10:27:00,51.6,27.5,30.20,North,355,8.0,23.0,39,0.00,,---,0.00,VWS V12.08,2013-03-04 15:27:00,
2013-03-04 10:32:00,51.6,27.5,30.20,North,355,9.0,23.0,39,0.00,,---,0.00,VWS V12.08,2013-03-04 15:32:00,
2013-03-04 10:37:00,51.6,27.5,30.20,North,355,0.0,23.0,39,0.00,,---,0.00,VWS V12.08,2013-03-04 15:37:00,
2013-03-04 10:42:00,52.2,29.2,30.21,NNW,346,0.0,23.0,41,0.00,,---,0.00,VWS V12.08,2013-03-04 15:42:00,
2013-03-04 10:47:00,52.8,29.2,30.20,NE,40,2.0,23.0,40,0.00,,---,0.00,VWS V12.08,2013-03-04 15:47:00,
2013-03-04 10:52:00,52.9,28.0,30.20,NNE,13,1.0,23.0,38,0.00,,---,0.00,VWS V12.08,2013-03-04 15:52:00,
2013-03-04 10:57:00,53.0,28.1,30.20,NNE,13,5.0,23.0,38,0.00,,---,0.00,VWS V12.08,2013-03-04 15:57:00,
2013-03-04 11:02:00,53.4,27.8,30.20,North,5,6.0,23.0,37,0.00,,---,0.00,VWS V12.08,2013-03-04 16:02:00,
2013-03-04 11:07:00,53.7,26.0,30.20,NE,49,0.0,23.0,34,0.00,,---,0.00,VWS V12.08,2013-03-04 16:07:00,
2013-03-04 11:12:00,53.9,26.2,30.20,NW,311,4.0,23.0,34,0.00,,---,0.00,VWS V12.08,2013-03-04 16:12:00,
2013-03-04 11:17:00,54.1,24.9,30.20,North,355,1.0,23.0,32,0.00,,---,0.00,VWS V12.08,2013-03-04 16:17:00,
2013-03-04 11:22:00,54.1,27.8,30.20,NW,314,8.0,23.0,36,0.00,,---,0.00,VWS V12.08,2013-03-04 16:22:00,
2013-03-04 11:27:00,54.3,25.8,30.20,WNW,298,6.0,23.0,33,0.00,,---,0.00,VWS V12.08,2013-03-04 16:27:00,
2013-03-04 11:32:00,54.8,25.5,30.20,WNW,292,5.0,23.0,32,0.00,,---,0.00,VWS V12.08,2013-03-04 16:32:00,
2013-03-04 11:37:00,55.1,26.5,30.20,WNW,290,2.0,23.0,33,0.00,,---,0.00,VWS V12.08,2013-03-04 16:37:00,
2013-03-04 11:42:00,55.6,29.1,30.20,North,5,9.0,23.0,36,0.00,,---,0.00,VWS V12.08,2013-03-04 16:42:00,
2013-03-04 11:47:00,55.7,26.3,30.19,NNW,340,0.0,23.0,32,0.00,,---,0.00,VWS V12.08,2013-03-04 16:47:00,
2013-03-04 11:52:00,55.8,26.4,30.19,NW,324,5.0,23.0,32,0.00,,---,0.00,VWS V12.08,2013-03-04 16:52:00,
2013-03-04 11:57:00,56.2,27.5,30.19,NNW,339,7.0,23.0,33,0.00,,---,0.00,VWS V12.08,2013-03-04 16:57:00,
2013-03-04 12:02:00,56.3,26.8,30.19,NNE,18,4.0,23.0,32,0.00,,---,0.00,VWS V12.08,2013-03-04 17:02:00,
2013-03-04 12:07:00,56.6,27.1,30.19,NNE,30,0.0,23.0,32,0.00,,---,0.00,VWS V12.08,2013-03-04 17:07:00,
2013-03-04 12:12:00,57.2,29.1,30.19,NNE,29,3.0,23.0,34,0.00,,---,0.00,VWS V12.08,2013-03-04 17:12:00,
2013-03-04 12:17:00,57.5,28.6,30.18,West,276,7.0,23.0,33,0.00,,---,0.00,VWS V12.08,2013-03-04 17:17:00,
2013-03-04 12:22:00,57.8,27.4,30.18,North,5,3.0,23.0,31,0.00,,---,0.00,VWS V12.08,2013-03-04 17:22:00,
2013-03-04 12:27:00,57.8,28.2,30.17,NE,44,1.0,23.0,32,0.00,,---,0.00,VWS V12.08,2013-03-04 17:27:00,
2013-03-04 12:32:00,57.9,26.7,30.17,NNE,28,4.0,23.0,30,0.00,,---,0.00,VWS V12.08,2013-03-04 17:32:00,
2013-03-04 12:37:00,58.1,27.6,30.17,NNE,29,0.0,23.0,31,0.00,,---,0.00,VWS V12.08,2013-03-04 17:37:00,
2013-03-04 12:42:00,58.2,28.5,30.16,NE,42,5.0,23.0,32,0.00,,---,0.00,VWS V12.08,2013-03-04 17:42:00,
2013-03-04 12:47:00,58.8,28.3,30.16,NNE,33,1.0,23.0,31,0.00,,---,0.00,VWS V12.08,2013-03-04 17:47:00,
2013-03-04 12:52:00,58.9,27.5,30.16,NNE,22,0.0,23.0,30,0.00,,---,0.00,VWS V12.08,2013-03-04 17:52:00,
2013-03-04 12:57:00,59.2,28.6,30.16,NNE,12,1.0,23.0,31,0.00,,---,0.00,VWS V12.08,2013-03-04 17:57:00,
2013-03-04 13:02:00,59.4,27.2,30.16,NE,44,0.0,23.0,29,0.00,,---,0.00,VWS V12.08,2013-03-04 18:02:00,
2013-03-04 13:07:00,59.6,28.1,30.15,NNE,28,0.0,23.0,30,0.00,,---,0.00,VWS V12.08,2013-03-04 18:07:00,
2013-03-04 13:12:00,59.8,28.3,30.15,North,5,5.0,23.0,30,0.00,,---,0.00,VWS V12.08,2013-03-04 18:12:00,
2013-03-04 13:17:00,60.2,29.5,30.15,NE,47,0.0,23.0,31,0.00,,---,0.00,VWS V12.08,2013-03-04 18:17:00,
2013-03-04 13:22:00,60.9,30.1,30.15,North,9,5.0,23.0,31,0.00,,---,0.00,VWS V12.08,2013-03-04 18:22:00,
2013-03-04 13:27:00,60.7,29.9,30.15,NNW,329,5.0,23.0,31,0.00,,---,0.00,VWS V12.08,2013-03-04 18:27:00,
2013-03-04 13:29:00,60.6,29.8,30.15,NW,325,2.0,23.0,31,0.00,,---,0.00,VWS V12.08,2013-03-04 18:29:00,
2013-03-04 13:30:00,60.5,29.7,30.15,NW,325,0.0,23.0,31,0.00,,---,0.00,VWS V12.08,2013-03-04 18:30:00,
2013-03-04 13:32:00,60.4,28.9,30.15,WSW,238,7.0,23.0,30,0.00,,---,0.00,VWS V12.08,2013-03-04 18:32:00,
2013-03-04 13:37:00,60.8,30.0,30.14,SSW,212,0.0,23.0,31,0.00,,---,0.00,VWS V12.08,2013-03-04 18:37:00,
2013-03-04 13:42:00,61.4,28.0,30.14,South,171,0.0,23.0,28,0.00,,---,0.00,VWS V12.08,2013-03-04 18:42:00,
2013-03-04 13:47:00,61.7,30.0,30.14,SSE,167,0.0,23.0,30,0.00,,---,0.00,VWS V12.08,2013-03-04 18:47:00,
2013-03-04 13:52:00,62.2,31.2,30.13,NNE,13,2.0,23.0,31,0.00,,---,0.00,VWS V12.08,2013-03-04 18:52:00,
2013-03-04 13:57:00,62.1,30.3,30.13,North,355,5.0,23.0,30,0.00,,---,0.00,VWS V12.08,2013-03-04 18:57:00,
2013-03-04 14:02:00,61.8,30.1,30.13,NNW,341,0.0,23.0,30,0.00,,---,0.00,VWS V12.08,2013-03-04 19:02:00,
2013-03-04 14:07:00,61.9,30.1,30.12,NNE,24,0.0,23.0,30,0.00,,---,0.00,VWS V12.08,2013-03-04 19:07:00,
2013-03-04 14:12:00,62.0,29.4,30.12,NNE,23,0.0,23.0,29,0.00,,---,0.00,VWS V12.08,2013-03-04 19:12:00,
2013-03-04 14:17:00,62.0,29.4,30.12,NNE,19,0.0,23.0,29,0.00,,---,0.00,VWS V12.08,2013-03-04 19:17:00,
2013-03-04 14:22:00,62.3,30.5,30.12,East,101,6.0,23.0,30,0.00,,---,0.00,VWS V12.08,2013-03-04 19:22:00,
2013-03-04 14:27:00,62.5,29.8,30.11,SSE,148,0.0,23.0,29,0.00,,---,0.00,VWS V12.08,2013-03-04 19:27:00,
2013-03-04 14:32:00,62.7,31.6,30.11,ENE,76,1.0,23.0,31,0.00,,---,0.00,VWS V12.08,2013-03-04 19:32:00,
2013-03-04 14:37:00,62.9,31.0,30.11,NE,40,4.0,23.0,30,0.00,,---,0.00,VWS V12.08,2013-03-04 19:37:00,
2013-03-04 14:42:00,63.6,32.4,30.11,NE,55,1.0,23.0,31,0.00,,---,0.00,VWS V12.08,2013-03-04 19:42:00,
2013-03-04 14:47:00,63.9,31.9,30.11,North,5,1.0,23.0,30,0.00,,---,0.00,VWS V12.08,2013-03-04 19:47:00,
2013-03-04 14:52:00,63.6,31.6,30.11,North,5,0.0,23.0,30,0.00,,---,0.00,VWS V12.08,2013-03-04 19:52:00,
2013-03-04 14:57:00,64.0,32.0,30.11,NNE,30,2.0,23.0,30,0.00,,---,0.00,VWS V12.08,2013-03-04 19:57:00,
2013-03-04 15:02:00,64.4,31.5,30.11,East,81,0.0,23.0,29,0.00,,---,0.00,VWS V12.08,2013-03-04 20:02:00,
2013-03-04 15:07:00,64.3,30.5,30.11,ESE,119,5.0,23.0,28,0.00,,---,0.00,VWS V12.08,2013-03-04 20:07:00,
2013-03-04 15:12:00,64.3,30.5,30.11,ESE,119,4.0,23.0,28,0.00,,---,0.00,VWS V12.08,2013-03-04 20:12:00,
2013-03-04 15:17:00,64.3,30.5,30.11,ESE,118,0.0,23.0,28,0.00,,---,0.00,VWS V12.08,2013-03-04 20:17:00,
2013-03-04 15:22:00,64.2,31.3,30.11,ESE,117,4.0,23.0,29,0.00,,---,0.00,VWS V12.08,2013-03-04 20:22:00,
2013-03-04 15:27:00,64.5,31.6,30.10,ESE,110,0.0,23.0,29,0.00,,---,0.00,VWS V12.08,2013-03-04 20:27:00,
2013-03-04 15:32:00,64.5,31.6,30.11,ESE,109,0.0,23.0,29,0.00,,---,0.00,VWS V12.08,2013-03-04 20:32:00,
2013-03-04 15:37:00,64.8,31.0,30.11,East,90,7.0,23.0,28,0.00,,---,0.00,VWS V12.08,2013-03-04 20:37:00,
2013-03-04 15:42:00,64.3,33.8,30.11,NNW,336,0.0,23.0,32,0.00,,---,0.00,VWS V12.08,2013-03-04 20:42:00,
2013-03-04 15:47:00,64.4,32.3,30.11,NW,323,2.0,23.0,30,0.00,,---,0.00,VWS V12.08,2013-03-04 20:47:00,
2013-03-04 15:52:00,64.4,33.1,30.11,NW,323,4.0,23.0,31,0.00,,---,0.00,VWS V12.08,2013-03-04 20:52:00,
2013-03-04 15:57:00,64.7,30.9,30.10,West,275,6.0,23.0,28,0.00,,---,0.00,VWS V12.08,2013-03-04 20:57:00,
2013-03-04 16:02:00,65.0,31.1,30.10,SSW,209,4.0,23.0,28,0.00,,---,0.00,VWS V12.08,2013-03-04 21:02:00,
2013-03-04 16:07:00,65.3,31.4,30.10,SSW,209,0.0,23.0,28,0.00,,---,0.00,VWS V12.08,2013-03-04 21:07:00,
2013-03-04 16:12:00,65.6,31.6,30.10,SSW,209,0.0,23.0,28,0.00,,---,0.00,VWS V12.08,2013-03-04 21:12:00,
2013-03-04 16:17:00,65.7,33.5,30.10,North,5,2.0,23.0,30,0.00,,---,0.00,VWS V12.08,2013-03-04 21:17:00,
2013-03-04 16:22:00,65.6,32.5,30.10,North,5,2.0,23.0,29,0.00,,---,0.00,VWS V12.08,2013-03-04 21:22:00,
2013-03-04 16:27:00,65.6,31.6,30.10,ESE,116,4.0,23.0,28,0.00,,---,0.00,VWS V12.08,2013-03-04 21:27:00,
2013-03-04 16:32:00,65.4,31.5,30.10,SE,136,2.0,23.0,28,0.00,,---,0.00,VWS V12.08,2013-03-04 21:32:00,
2013-03-04 16:37:00,65.5,31.6,30.10,South,190,6.0,23.0,28,0.00,,---,0.00,VWS V12.08,2013-03-04 21:37:00,
2013-03-04 16:42:00,65.5,31.6,30.10,SSW,194,1.0,23.0,28,0.00,,---,0.00,VWS V12.08,2013-03-04 21:42:00,
2013-03-04 16:47:00,65.5,31.6,30.10,SSW,194,0.0,23.0,28,0.00,,---,0.00,VWS V12.08,2013-03-04 21:47:00,
2013-03-04 16:52:00,65.6,32.5,30.10,South,191,0.0,23.0,29,0.00,,---,0.00,VWS V12.08,2013-03-04 21:52:00,
2013-03-04 16:57:00,65.7,32.6,30.10,SSW,198,2.0,23.0,29,0.00,,---,0.00,VWS V12.08,2013-03-04 21:57:00,
2013-03-04 17:02:00,65.3,32.3,30.11,SSW,213,0.0,23.0,29,0.00,,---,0.00,VWS V12.08,2013-03-04 22:02:00,
2013-03-04 17:07:00,65.4,33.2,30.11,SSW,213,0.0,23.0,30,0.00,,---,0.00,VWS V12.08,2013-03-04 22:07:00,
2013-03-04 17:12:00,65.5,32.4,30.10,SSW,213,0.0,23.0,29,0.00,,---,0.00,VWS V12.08,2013-03-04 22:12:00,
2013-03-04 17:17:00,65.5,33.3,30.11,SW,220,0.0,23.0,30,0.00,,---,0.00,VWS V12.08,2013-03-04 22:17:00,
2013-03-04 17:22:00,65.3,33.1,30.11,WSW,240,2.0,23.0,30,0.00,,---,0.00,VWS V12.08,2013-03-04 22:22:00,
2013-03-04 17:27:00,64.8,32.7,30.11,WSW,240,2.0,23.0,30,0.00,,---,0.00,VWS V12.08,2013-03-04 22:27:00,
2013-03-04 17:32:00,64.6,32.5,30.11,WSW,240,0.0,23.0,30,0.00,,---,0.00,VWS V12.08,2013-03-04 22:32:00,
2013-03-04 17:37:00,64.4,32.3,30.11,WSW,240,0.0,23.0,30,0.00,,---,0.00,VWS V12.08,2013-03-04 22:37:00,
2013-03-04 17:42:00,64.2,33.0,30.11,WSW,240,0.0,23.0,31,0.00,,---,0.00,VWS V12.08,2013-03-04 22:42:00,
2013-03-04 17:47:00,64.0,32.0,30.11,WSW,240,1.0,23.0,30,0.00,,---,0.00,VWS V12.08,2013-03-04 22:47:00,
2013-03-04 17:52:00,63.8,32.6,30.11,WSW,240,0.0,23.0,31,0.00,,---,0.00,VWS V12.08,2013-03-04 22:52:00,
2013-03-04 17:57:00,63.5,32.3,30.12,WSW,240,0.0,23.0,31,0.00,,---,0.00,VWS V12.08,2013-03-04 22:57:00,
2013-03-04 18:02:00,63.2,32.1,30.11,WSW,240,0.0,23.0,31,0.00,,---,0.00,VWS V12.08,2013-03-04 23:02:00,
2013-03-04 18:07:00,62.5,33.0,30.12,WSW,240,1.0,23.0,33,0.00,,---,0.00,VWS V12.08,2013-03-04 23:07:00,
2013-03-04 18:12:00,61.7,32.3,30.12,WSW,240,2.0,23.0,33,0.00,,---,0.00,VWS V12.08,2013-03-04 23:12:00,
2013-03-04 18:17:00,60.8,32.3,30.11,WSW,240,0.0,23.0,34,0.00,,---,0.00,VWS V12.08,2013-03-04 23:17:00,
2013-03-04 18:22:00,59.9,32.2,30.12,WSW,240,0.0,23.0,35,0.00,,---,0.00,VWS V12.08,2013-03-04 23:22:00,
2013-03-04 18:27:00,59.1,32.2,30.12,WSW,240,0.0,23.0,36,0.00,,---,0.00,VWS V12.08,2013-03-04 23:27:00,
2013-03-04 18:32:00,58.5,32.3,30.12,WSW,240,0.0,23.0,37,0.00,,---,0.00,VWS V12.08,2013-03-04 23:32:00,
2013-03-04 18:37:00,57.7,34.2,30.12,WSW,240,0.0,23.0,41,0.00,,---,0.00,VWS V12.08,2013-03-04 23:37:00,
2013-03-04 18:42:00,56.6,33.8,30.13,WSW,240,0.0,23.0,42,0.00,,---,0.00,VWS V12.08,2013-03-04 23:42:00,
2013-03-04 18:47:00,55.9,34.3,30.13,WSW,240,0.0,23.0,44,0.00,,---,0.00,VWS V12.08,2013-03-04 23:47:00,
2013-03-04 18:52:00,55.2,34.2,30.13,WSW,240,0.0,23.0,45,0.00,,---,0.00,VWS V12.08,2013-03-04 23:52:00,
2013-03-04 18:57:00,54.6,33.1,30.13,WSW,240,0.0,23.0,44,0.00,,---,0.00,VWS V12.08,2013-03-04 23:57:00,
2013-03-04 19:02:00,54.5,33.0,30.13,WSW,240,0.0,23.0,44,0.00,,---,0.00,VWS V12.08,2013-03-05 00:02:00,
2013-03-04 19:07:00,54.2,33.3,30.13,WSW,240,0.0,23.0,45,0.00,,---,0.00,VWS V12.08,2013-03-05 00:07:00,
2013-03-04 19:12:00,53.9,33.6,30.13,WSW,240,0.0,23.0,46,0.00,,---,0.00,VWS V12.08,2013-03-05 00:12:00,
2013-03-04 19:17:00,53.3,33.6,30.13,WSW,240,0.0,23.0,47,0.00,,---,0.00,VWS V12.08,2013-03-05 00:17:00,
2013-03-04 19:22:00,52.5,33.4,30.14,WSW,240,0.0,23.0,48,0.00,,---,0.00,VWS V12.08,2013-03-05 00:22:00,
2013-03-04 19:27:00,51.7,33.7,30.14,WSW,240,0.0,23.0,50,0.00,,---,0.00,VWS V12.08,2013-03-05 00:27:00,
2013-03-04 19:32:00,50.9,33.9,30.14,WSW,240,0.0,23.0,52,0.00,,---,0.00,VWS V12.08,2013-03-05 00:32:00,
2013-03-04 19:37:00,50.1,33.7,30.14,WSW,240,0.0,23.0,53,0.00,,---,0.00,VWS V12.08,2013-03-05 00:37:00,
2013-03-04 19:42:00,49.5,33.6,30.14,WSW,240,0.0,23.0,54,0.00,,---,0.00,VWS V12.08,2013-03-05 00:42:00,
2013-03-04 19:47:00,49.0,33.1,30.14,WSW,240,0.0,23.0,54,0.00,,---,0.00,VWS V12.08,2013-03-05 00:47:00,
2013-03-04 19:52:00,48.6,33.2,30.14,WSW,240,0.0,23.0,55,0.00,,---,0.00,VWS V12.08,2013-03-05 00:52:00,
2013-03-04 19:57:00,48.5,33.5,30.14,WSW,240,0.0,23.0,56,0.00,,---,0.00,VWS V12.08,2013-03-05 00:57:00,
2013-03-04 20:02:00,48.4,33.0,30.14,WSW,240,0.0,23.0,55,0.00,,---,0.00,VWS V12.08,2013-03-05 01:02:00,
2013-03-04 20:07:00,48.2,33.7,30.14,WSW,240,0.0,23.0,57,0.00,,---,0.00,VWS V12.08,2013-03-05 01:07:00,
2013-03-04 20:12:00,47.7,33.2,30.14,WSW,240,0.0,23.0,57,0.00,,---,0.00,VWS V12.08,2013-03-05 01:12:00,
2013-03-04 20:17:00,47.2,33.2,30.15,WSW,240,0.0,23.0,58,0.00,,---,0.00,VWS V12.08,2013-03-05 01:17:00,
2013-03-04 20:22:00,46.8,32.8,30.15,WSW,240,0.0,23.0,58,0.00,,---,0.00,VWS V12.08,2013-03-05 01:22:00,
2013-03-04 20:27:00,46.4,32.9,30.15,WSW,240,0.0,23.0,59,0.00,,---,0.00,VWS V12.08,2013-03-05 01:27:00,
2013-03-04 20:32:00,46.0,32.5,30.14,WSW,240,0.0,23.0,59,0.00,,---,0.00,VWS V12.08,2013-03-05 01:32:00,
2013-03-04 20:37:00,45.7,33.0,30.14,WSW,240,0.0,23.0,61,0.00,,---,0.00,VWS V12.08,2013-03-05 01:37:00,
2013-03-04 20:42:00,45.4,33.2,30.14,WSW,240,0.0,23.0,62,0.00,,---,0.00,VWS V12.08,2013-03-05 01:42:00,
2013-03-04 20:47:00,44.7,32.5,30.14,SW,233,0.0,23.0,62,0.00,,---,0.00,VWS V12.08,2013-03-05 01:47:00,
2013-03-04 20:52:00,44.5,32.7,30.15,SW,223,2.0,23.0,63,0.00,,---,0.00,VWS V12.08,2013-03-05 01:52:00,
2013-03-04 20:57:00,44.8,33.4,30.15,SW,221,1.0,23.0,64,0.00,,---,0.00,VWS V12.08,2013-03-05 01:57:00,
2013-03-04 21:02:00,45.3,33.5,30.15,SW,221,0.0,23.0,63,0.00,,---,0.00,VWS V12.08,2013-03-05 02:02:00,
2013-03-04 21:07:00,46.1,34.2,30.15,SW,221,0.0,23.0,63,0.00,,---,0.00,VWS V12.08,2013-03-05 02:07:00,
2013-03-04 21:12:00,46.8,34.9,30.16,SW,221,0.0,23.0,63,0.00,,---,0.00,VWS V12.08,2013-03-05 02:12:00,
2013-03-04 21:17:00,47.2,35.3,30.16,SW,221,0.0,23.0,63,0.00,,---,0.00,VWS V12.08,2013-03-05 02:17:00,
2013-03-04 21:22:00,47.4,35.0,30.16,SW,221,0.0,23.0,62,0.00,,---,0.00,VWS V12.08,2013-03-05 02:22:00,
2013-03-04 21:27:00,47.3,35.0,30.16,SW,221,0.0,23.0,62,0.00,,---,0.00,VWS V12.08,2013-03-05 02:27:00,
2013-03-04 21:32:00,47.2,35.7,30.16,SW,221,0.0,23.0,64,0.00,,---,0.00,VWS V12.08,2013-03-05 02:32:00,
2013-03-04 21:37:00,47.4,36.2,30.16,SW,221,0.0,23.0,65,0.00,,---,0.00,VWS V12.08,2013-03-05 02:37:00,
2013-03-04 21:42:00,47.3,36.2,30.16,SW,221,0.0,23.0,65,0.00,,---,0.00,VWS V12.08,2013-03-05 02:42:00,
2013-03-04 21:47:00,46.5,35.4,30.16,SW,236,3.0,23.0,65,0.00,,---,0.00,VWS V12.08,2013-03-05 02:47:00,
2013-03-04 21:52:00,45.2,35.3,30.16,SW,236,0.0,23.0,68,0.00,,---,0.00,VWS V12.08,2013-03-05 02:52:00,
2013-03-04 21:57:00,45.1,35.5,30.17,SW,236,2.0,23.0,69,0.00,,---,0.00,VWS V12.08,2013-03-05 02:57:00,
2013-03-04 22:02:00,45.1,35.5,30.16,SW,236,0.0,23.0,69,0.00,,---,0.00,VWS V12.08,2013-03-05 03:02:00,
2013-03-04 22:08:00,44.8,35.3,30.16,SW,236,0.0,23.0,69,0.00,,---,0.00,VWS V12.08,2013-03-05 03:08:00,
2013-03-04 22:13:00,44.5,35.3,30.16,SW,236,3.0,23.0,70,0.00,,---,0.00,VWS V12.08,2013-03-05 03:13:00,
2013-03-04 22:18:00,44.3,35.2,30.16,SW,236,0.0,23.0,70,0.00,,---,0.00,VWS V12.08,2013-03-05 03:18:00,
2013-03-04 22:23:00,43.8,35.4,30.16,SW,236,1.0,23.0,72,0.00,,---,0.00,VWS V12.08,2013-03-05 03:23:00,
2013-03-04 22:28:00,43.9,35.5,30.17,SW,236,0.0,23.0,72,0.00,,---,0.00,VWS V12.08,2013-03-05 03:28:00,
2013-03-04 22:33:00,43.9,35.1,30.17,SW,236,0.0,23.0,71,0.00,,---,0.00,VWS V12.08,2013-03-05 03:33:00,
2013-03-04 22:38:00,43.6,34.8,30.17,SW,236,0.0,23.0,71,0.00,,---,0.00,VWS V12.08,2013-03-05 03:38:00,
2013-03-04 22:43:00,43.3,34.9,30.16,SW,236,0.0,23.0,72,0.00,,---,0.00,VWS V12.08,2013-03-05 03:43:00,
2013-03-04 22:48:00,43.1,34.7,30.16,SW,236,0.0,23.0,72,0.00,,---,0.00,VWS V12.08,2013-03-05 03:48:00,
2013-03-04 22:53:00,42.7,34.7,30.16,SW,236,0.0,23.0,73,0.00,,---,0.00,VWS V12.08,2013-03-05 03:53:00,
2013-03-04 22:58:00,42.3,34.3,30.16,SW,236,0.0,23.0,73,0.00,,---,0.00,VWS V12.08,2013-03-05 03:58:00,
2013-03-04 23:03:00,42.0,34.3,30.16,SW,236,0.0,23.0,74,0.00,,---,0.00,VWS V12.08,2013-03-05 04:03:00,
2013-03-04 23:08:00,41.7,34.0,30.16,SW,236,0.0,23.0,74,0.00,,---,0.00,VWS V12.08,2013-03-05 04:08:00,
2013-03-04 23:13:00,41.4,34.1,30.16,SW,236,0.0,23.0,75,0.00,,---,0.00,VWS V12.08,2013-03-05 04:13:00,
2013-03-04 23:18:00,41.3,34.3,30.16,SW,236,0.0,23.0,76,0.00,,---,0.00,VWS V12.08,2013-03-05 04:18:00,
2013-03-04 23:23:00,41.2,34.2,30.16,SW,236,0.0,23.0,76,0.00,,---,0.00,VWS V12.08,2013-03-05 04:23:00,
2013-03-04 23:28:00,41.0,34.3,30.16,SW,236,0.0,23.0,77,0.00,,---,0.00,VWS V12.08,2013-03-05 04:28:00,
2013-03-04 23:33:00,40.7,34.1,30.15,SW,236,0.0,23.0,77,0.00,,---,0.00,VWS V12.08,2013-03-05 04:33:00,
2013-03-04 23:38:00,40.4,33.8,30.15,SW,236,0.0,23.0,77,0.00,,---,0.00,VWS V12.08,2013-03-05 04:38:00,
2013-03-04 23:43:00,40.2,33.9,30.15,SW,236,0.0,23.0,78,0.00,,---,0.00,VWS V12.08,2013-03-05 04:43:00,
2013-03-04 23:48:00,40.0,33.7,30.15,SW,236,0.0,23.0,78,0.00,,---,0.00,VWS V12.08,2013-03-05 04:48:00,
2013-03-04 23:53:00,39.7,33.4,30.14,SW,236,0.0,23.0,78,0.00,,---,0.00,VWS V12.08,2013-03-05 04:53:00,
2013-03-04 23:58:00,39.5,33.5,30.14,SW,236,0.0,23.0,79,0.00,,---,0.00,VWS V12.08,2013-03-05 04:58:00,